Time;durP1;ratioP1;P1;durP2;ratioP2;P2;SDS_P1;SDS_P2;PMS_P1;PMS_P2;Temp;Humidity;BMP_temperature;BMP_pressure;BME280_temperature;BME280_humidity;BME280_pressure;Samples;Min_cycle;Max_cycle;Signal;HPM_P1;HPM_P2
2021/09/11 00:01:34;;;;;;;6.60;3.35;;;;;;;11.87;82.30;97218.88;5063313;28;20040;-71
2021/09/11 00:04:01;;;;;;;5.40;3.10;;;;;;;11.99;83.03;97249.19;5063471;28;20086;-71
2021/09/11 00:06:28;;;;;;;5.15;3.17;;;;;;;11.85;83.50;97215.66;5063311;28;20151;-71
2021/09/11 00:08:54;;;;;;;9.68;3.85;;;;;;;11.07;82.56;97079.69;5063202;28;20511;-71
2021/09/11 00:11:21;;;;;;;7.25;3.22;;;;;;;12.02;82.60;97242.88;5063553;28;20060;-71
2021/09/11 00:13:48;;;;;;;5.13;3.30;;;;;;;11.46;81.63;97144.88;5063131;28;20159;-70
2021/09/11 00:16:15;;;;;;;6.10;3.33;;;;;;;11.73;81.76;97182.56;5063745;28;20067;-70
2021/09/11 00:18:42;;;;;;;4.85;3.08;;;;;;;12.17;81.32;97245.47;5061815;28;20083;-70
2021/09/11 00:21:09;;;;;;;6.95;3.10;;;;;;;11.80;81.50;97202.91;5065378;28;20067;-71
2021/09/11 00:23:36;;;;;;;7.18;3.35;;;;;;;12.08;81.56;97241.38;4964271;28;20425;-69
2021/09/11 00:26:02;;;;;;;6.93;3.30;;;;;;;12.04;82.13;97243.31;4960682;28;20062;-70
2021/09/11 00:28:29;;;;;;;9.18;3.00;;;;;;;12.06;81.92;97250.06;4961855;28;20047;-70
2021/09/11 00:30:56;;;;;;;4.90;3.30;;;;;;;12.12;81.87;97253.34;4961559;28;20062;-70
2021/09/11 00:33:23;;;;;;;8.38;3.53;;;;;;;11.20;81.73;97117.13;4961546;28;20051;-70
2021/09/11 00:35:49;;;;;;;8.25;3.25;;;;;;;11.49;81.76;97175.44;4962814;28;20058;-70
2021/09/11 00:38:16;;;;;;;5.90;3.03;;;;;;;11.98;82.53;97253.91;4964844;28;20055;-70
2021/09/11 00:40:43;;;;;;;4.95;3.10;;;;;;;11.93;81.90;97239.56;4964583;28;20055;-69
2021/09/11 00:43:10;;;;;;;6.88;2.97;;;;;;;11.99;81.79;97249.19;4963522;28;20058;-70
2021/09/11 00:45:36;;;;;;;8.25;3.00;;;;;;;11.63;81.94;97197.09;4964629;28;20057;-70
2021/09/11 00:48:04;;;;;;;4.65;2.92;;;;;;;11.90;82.38;97245.88;4963212;28;20502;-69
2021/09/11 00:50:30;;;;;;;5.07;3.00;;;;;;;9.87;82.32;96917.06;4963491;28;20047;-70
2021/09/11 00:52:57;;;;;;;5.85;2.42;;;;;;;11.85;83.12;97251.75;4963531;28;20058;-70
2021/09/11 00:55:24;;;;;;;5.63;2.92;;;;;;;11.80;83.87;97257.59;4963208;28;20063;-70
2021/09/11 00:57:51;;;;;;;5.25;3.15;;;;;;;11.82;83.04;97255.25;4980167;28;20059;-71
2021/09/11 01:00:18;;;;;;;6.18;2.97;;;;;;;11.77;82.79;97258.34;4982576;28;20065;-71
2021/09/11 01:02:45;;;;;;;5.22;3.63;;;;;;;11.74;83.00;97256.31;4982332;28;20047;-69
2021/09/11 01:05:13;;;;;;;7.47;3.40;;;;;;;11.73;82.89;97274.94;4984002;28;20050;-69
2021/09/11 01:07:43;;;;;;;7.43;3.80;;;;;;;11.67;83.30;97264.53;4982605;28;20080;-69
2021/09/11 01:10:10;;;;;;;6.88;3.60;;;;;;;11.49;84.33;97246.78;4982352;28;20076;-69
2021/09/11 01:12:38;;;;;;;6.20;3.72;;;;;;;11.63;83.86;97263.69;4984283;28;20159;-69
2021/09/11 01:15:07;;;;;;;4.60;3.22;;;;;;;11.53;85.31;97269.81;4982630;28;20046;-69
2021/09/11 01:17:35;;;;;;;8.35;3.22;;;;;;;11.22;84.75;97203.53;4983733;28;20072;-70
2021/09/11 01:20:03;;;;;;;6.45;3.25;;;;;;;11.15;84.19;97189.53;4982480;28;20054;-70
2021/09/11 01:22:29;;;;;;;9.52;3.42;;;;;;;11.55;84.19;97267.47;4983738;28;20138;-69
2021/09/11 01:25:00;;;;;;;4.97;3.20;;;;;;;11.51;84.64;97258.28;4982284;28;20137;-70
2021/09/11 01:27:28;;;;;;;6.07;3.08;;;;;;;11.49;84.27;97263.41;4982397;28;20050;-70
2021/09/11 01:29:56;;;;;;;7.32;3.67;;;;;;;11.38;84.66;97262.44;4982351;28;20072;-70
2021/09/11 01:32:24;;;;;;;8.75;3.70;;;;;;;11.39;84.96;97270.38;4982066;28;20054;-70
2021/09/11 01:34:51;;;;;;;6.18;3.63;;;;;;;11.45;84.77;97265.31;4983594;28;20458;-70
2021/09/11 01:37:19;;;;;;;6.47;3.83;;;;;;;11.39;85.02;97267.63;4983695;28;20050;-69
2021/09/11 01:39:48;;;;;;;6.50;3.42;;;;;;;11.12;84.55;97213.25;4983395;28;20062;-70
2021/09/11 01:42:19;;;;;;;5.65;3.00;;;;;;;11.02;85.71;97210.31;4983478;28;20509;-69
2021/09/11 01:44:47;;;;;;;10.05;3.42;;;;;;;11.21;86.34;97262.91;4983422;28;20046;-69
2021/09/11 01:47:14;;;;;;;6.93;3.90;;;;;;;11.21;85.95;97268.44;4981988;28;20137;-69
2021/09/11 01:49:42;;;;;;;11.70;3.90;;;;;;;11.11;85.73;97258.00;4984055;28;20062;-69
2021/09/11 01:52:10;;;;;;;5.05;3.60;;;;;;;11.15;86.13;97251.34;4982972;28;20055;-69
2021/09/11 01:54:38;;;;;;;6.35;3.30;;;;;;;11.02;87.81;97249.13;4983090;28;20065;-69
2021/09/11 01:57:05;;;;;;;6.38;3.85;;;;;;;11.14;87.41;97301.59;4982923;28;20584;-69
2021/09/11 01:59:33;;;;;;;6.55;3.33;;;;;;;11.26;86.35;97248.72;4982999;28;20080;-69
2021/09/11 02:01:59;;;;;;;5.55;3.33;;;;;;;11.19;86.73;97256.94;4972318;28;20057;-69
2021/09/11 02:04:27;;;;;;;6.07;3.20;;;;;;;11.23;87.10;97249.47;4983655;28;20086;-69
2021/09/11 02:06:53;;;;;;;8.90;4.35;;;;;;;11.20;87.22;97244.69;4981801;28;20059;-70
2021/09/11 02:09:20;;;;;;;6.30;3.10;;;;;;;11.28;86.52;97252.75;4983238;28;20066;-70
2021/09/11 02:11:47;;;;;;;6.32;3.50;;;;;;;10.61;87.28;97156.50;4981804;28;20050;-69
2021/09/11 02:14:13;;;;;;;5.75;2.92;;;;;;;11.14;87.20;97240.59;4982505;28;20144;-69
2021/09/11 02:16:41;;;;;;;6.07;3.28;;;;;;;10.22;87.27;97100.41;4981529;28;20046;-70
2021/09/11 02:19:07;;;;;;;7.10;3.55;;;;;;;11.09;87.42;97238.13;4982996;28;20073;-69
2021/09/11 02:21:34;;;;;;;5.93;3.85;;;;;;;11.08;87.39;97234.56;4982666;28;20065;-70
2021/09/11 02:24:01;;;;;;;4.85;2.80;;;;;;;11.08;87.13;97233.78;4959229;28;20057;-70
2021/09/11 02:26:28;;;;;;;4.85;3.42;;;;;;;10.81;87.67;97199.63;4991891;28;20055;-69
2021/09/11 02:28:55;;;;;;;9.63;3.85;;;;;;;10.99;88.07;97224.88;4982736;28;20064;-69
2021/09/11 02:31:22;;;;;;;6.70;3.50;;;;;;;11.07;87.48;97235.75;4981188;28;20050;-70
2021/09/11 02:33:49;;;;;;;9.25;3.40;;;;;;;11.07;87.39;97240.47;4982250;28;20086;-70
2021/09/11 02:36:16;;;;;;;7.30;3.35;;;;;;;11.11;87.70;97235.81;4982375;28;20145;-70
2021/09/11 02:38:43;;;;;;;5.32;3.38;;;;;;;11.04;88.13;97246.75;4982770;28;20058;-70
2021/09/11 02:41:10;;;;;;;11.90;5.78;;;;;;;10.20;88.65;97138.72;4980976;28;20054;-69
2021/09/11 02:43:37;;;;;;;7.55;3.28;;;;;;;10.42;89.38;97187.81;4981268;28;20046;-70
2021/09/11 02:46:04;;;;;;;5.50;3.45;;;;;;;10.97;88.66;97257.72;4981493;28;20418;-70
2021/09/11 02:48:31;;;;;;;7.95;3.25;;;;;;;10.89;88.52;97256.78;4959495;28;20058;-70
2021/09/11 02:50:58;;;;;;;4.10;3.15;;;;;;;10.80;88.32;97249.84;4981218;28;20129;-70
2021/09/11 02:53:24;;;;;;;9.48;4.43;;;;;;;10.72;88.77;97250.91;4982453;28;20054;-71
2021/09/11 02:55:51;;;;;;;9.10;4.95;;;;;;;10.26;88.61;97184.31;4982541;28;20054;-70
2021/09/11 02:58:22;;;;;;;8.40;3.45;;;;;;;10.24;90.20;97191.38;4978925;28;20058;-70
2021/09/11 03:00:49;;;;;;;6.55;3.47;;;;;;;10.72;90.10;97262.00;4961524;28;20078;-69
2021/09/11 03:03:16;;;;;;;6.63;3.72;;;;;;;10.54;89.48;97220.88;4963125;28;20108;-70
2021/09/11 03:05:44;;;;;;;6.90;3.28;;;;;;;10.70;89.66;97263.13;4963015;28;20046;-70
2021/09/11 03:08:10;;;;;;;6.93;4.15;;;;;;;10.69;89.87;97261.56;4962971;28;20065;-69
2021/09/11 03:10:37;;;;;;;5.10;2.97;;;;;;;10.72;89.53;97265.53;4962451;28;20057;-69
2021/09/11 03:13:04;;;;;;;6.05;3.85;;;;;;;10.66;88.96;97259.50;4962623;28;20051;-70
2021/09/11 03:15:30;;;;;;;7.93;4.10;;;;;;;10.29;89.29;97211.25;4962885;28;20090;-68
2021/09/11 03:17:57;;;;;;;6.93;3.75;;;;;;;10.69;89.53;97266.28;4961141;28;20544;-69
2021/09/11 03:20:24;;;;;;;9.55;4.25;;;;;;;10.72;89.28;97256.44;4961313;28;20050;-68
2021/09/11 03:22:51;;;;;;;10.73;4.40;;;;;;;10.44;88.97;97224.25;4972770;28;20587;-68
2021/09/11 03:25:18;;;;;;;7.70;4.07;;;;;;;10.75;88.14;97278.66;4982411;28;20097;-69
2021/09/11 03:27:44;;;;;;;7.43;3.22;;;;;;;10.47;88.29;97212.44;4981655;28;20066;-68
2021/09/11 03:30:11;;;;;;;5.88;4.47;;;;;;;10.76;88.88;97271.16;4981833;28;20061;-69
2021/09/11 03:32:38;;;;;;;6.78;3.97;;;;;;;10.81;88.99;97265.34;4981894;28;20062;-68
2021/09/11 03:35:06;;;;;;;5.85;4.10;;;;;;;10.21;87.73;97167.19;4981810;28;20069;-69
2021/09/11 03:37:33;;;;;;;7.55;3.60;;;;;;;10.91;87.33;97265.53;4980346;28;20062;-68
2021/09/11 03:40:00;;;;;;;8.73;4.03;;;;;;;10.98;86.84;97265.69;4981711;28;20072;-69
2021/09/11 03:42:26;;;;;;;11.52;4.22;;;;;;;10.92;87.57;97252.47;4981862;28;20047;-68
2021/09/11 03:44:53;;;;;;;6.25;3.67;;;;;;;10.81;88.65;97257.03;4980500;28;20107;-68
2021/09/11 03:47:20;;;;;;;7.35;3.75;;;;;;;10.75;89.95;97261.25;4981972;28;20061;-68
2021/09/11 03:49:47;;;;;;;5.90;3.67;;;;;;;10.73;89.31;97258.84;4981268;28;20057;-69
2021/09/11 03:52:13;;;;;;;7.43;3.40;;;;;;;10.23;88.63;97168.44;4981465;28;20046;-70
2021/09/11 03:54:40;;;;;;;7.80;3.88;;;;;;;10.34;88.32;97241.44;4980238;28;20066;-70
2021/09/11 03:57:07;;;;;;;5.32;3.10;;;;;;;10.76;88.84;97271.97;4981094;28;20057;-69
2021/09/11 03:59:34;;;;;;;5.20;3.28;;;;;;;10.67;88.96;97263.88;4981989;28;20089;-70
2021/09/11 04:02:00;;;;;;;6.78;3.30;;;;;;;10.57;89.64;97267.22;4981047;28;20046;-70
2021/09/11 04:04:28;;;;;;;8.15;3.75;;;;;;;10.54;89.85;97273.50;4981364;28;20147;-69
2021/09/11 04:06:54;;;;;;;7.57;3.78;;;;;;;10.53;90.40;97271.91;4981456;28;20046;-69
2021/09/11 04:09:21;;;;;;;7.18;4.10;;;;;;;10.45;90.57;97280.41;4981415;28;20054;-69
2021/09/11 04:11:48;;;;;;;5.10;3.35;;;;;;;10.23;90.31;97245.94;4983356;28;20531;-70
2021/09/11 04:14:14;;;;;;;7.28;3.45;;;;;;;10.48;90.38;97280.50;4984523;28;20520;-69
2021/09/11 04:16:42;;;;;;;6.50;3.63;;;;;;;10.60;89.52;97274.84;4985011;28;20509;-70
2021/09/11 04:19:09;;;;;;;11.50;4.63;;;;;;;10.63;89.34;97287.13;4984488;28;20080;-69
2021/09/11 04:21:35;;;;;;;6.97;3.85;;;;;;;10.67;88.95;97269.41;4981756;28;20050;-70
2021/09/11 04:24:04;;;;;;;7.72;3.40;;;;;;;10.57;89.14;97256.13;4965075;28;20536;-71
2021/09/11 04:26:32;;;;;;;6.80;3.65;;;;;;;10.38;89.36;97231.25;4964085;28;20067;-71
2021/09/11 04:28:59;;;;;;;8.43;3.38;;;;;;;10.76;89.01;97269.19;4965323;28;20054;-71
2021/09/11 04:31:25;;;;;;;9.73;3.78;;;;;;;10.27;88.18;97174.84;4964782;28;20084;-72
2021/09/11 04:33:52;;;;;;;10.73;5.65;;;;;;;10.20;87.77;97165.59;4963317;28;20054;-70
2021/09/11 04:36:19;;;;;;;18.75;9.48;;;;;;;10.98;87.19;97265.69;4964026;28;20150;-69
2021/09/11 04:38:46;;;;;;;15.50;7.03;;;;;;;10.55;87.25;97252.97;4963687;28;20059;-70
2021/09/11 04:41:12;;;;;;;14.63;8.18;;;;;;;10.67;88.04;97272.19;4964588;28;20062;-70
2021/09/11 04:43:39;;;;;;;15.27;6.40;;;;;;;10.98;87.16;97325.84;4964741;28;20065;-69
2021/09/11 04:46:06;;;;;;;12.63;6.10;;;;;;;11.15;87.10;97264.38;4964436;28;20055;-70
2021/09/11 04:48:33;;;;;;;6.90;4.10;;;;;;;9.76;87.37;97012.91;4964758;28;20146;-70
2021/09/11 04:51:01;;;;;;;13.35;4.15;;;;;;;11.25;86.78;97224.97;4964435;28;20063;-69
2021/09/11 04:53:27;;;;;;;10.68;4.43;;;;;;;11.70;86.51;97261.81;4964476;28;20510;-69
2021/09/11 04:55:54;;;;;;;6.53;3.67;;;;;;;11.85;85.83;97260.06;4963344;28;20065;-70
2021/09/11 04:58:21;;;;;;;10.50;4.10;;;;;;;11.39;85.34;97191.91;4964215;28;20054;-70
2021/09/11 05:00:48;;;;;;;9.48;4.07;;;;;;;12.27;84.02;97260.69;4962981;28;20136;-70
2021/09/11 05:03:14;;;;;;;6.55;3.60;;;;;;;12.39;83.29;97257.69;4964426;28;20055;-69
2021/09/11 05:05:41;;;;;;;6.72;3.97;;;;;;;12.29;82.36;97202.78;4964393;28;20169;-69
2021/09/11 05:08:08;;;;;;;5.97;3.75;;;;;;;12.74;81.92;97252.56;4964321;28;20051;-70
2021/09/11 05:10:35;;;;;;;8.25;5.38;;;;;;;11.69;82.33;97098.47;4964571;28;20050;-69
2021/09/11 05:13:02;;;;;;;10.82;5.28;;;;;;;12.94;81.45;97250.41;4962702;28;20050;-70
2021/09/11 05:15:28;;;;;;;7.70;4.30;;;;;;;13.06;80.34;97252.94;4964732;28;20062;-70
2021/09/11 05:17:55;;;;;;;8.20;4.05;;;;;;;12.92;80.09;97214.66;4962621;28;20059;-70
2021/09/11 05:20:22;;;;;;;8.30;4.65;;;;;;;13.23;79.26;97264.25;4964565;28;20058;-70
2021/09/11 05:22:48;;;;;;;7.43;4.30;;;;;;;13.47;78.17;97251.75;4974560;28;20061;-70
2021/09/11 05:25:16;;;;;;;7.35;3.95;;;;;;;13.44;78.46;97261.69;4983917;28;20065;-70
2021/09/11 05:27:42;;;;;;;10.07;4.22;;;;;;;13.43;77.40;97223.94;4982318;28;20572;-70
2021/09/11 05:30:09;;;;;;;7.28;3.45;;;;;;;13.55;78.41;97217.25;4982460;28;20058;-70
2021/09/11 05:32:36;;;;;;;6.93;3.35;;;;;;;13.07;78.52;97138.53;4981885;28;20062;-70
2021/09/11 05:35:03;;;;;;;7.78;3.58;;;;;;;14.04;77.38;97258.56;4982034;28;20116;-70
2021/09/11 05:37:30;;;;;;;6.25;3.47;;;;;;;13.79;76.17;97199.13;4981945;28;20046;-70
2021/09/11 05:39:57;;;;;;;9.77;3.63;;;;;;;13.44;74.90;97119.75;4981793;28;20058;-70
2021/09/11 05:42:23;;;;;;;10.15;3.45;;;;;;;14.36;74.13;97220.59;4981819;28;20058;-69
2021/09/11 05:44:50;;;;;;;7.47;3.17;;;;;;;12.87;73.51;96945.31;4983499;28;20062;-70
2021/09/11 05:47:17;;;;;;;7.25;3.15;;;;;;;14.72;72.42;97200.03;4983238;28;20497;-70
2021/09/11 05:49:44;;;;;;;8.15;3.33;;;;;;;15.07;71.76;97239.19;4983560;28;20076;-70
2021/09/11 05:52:10;;;;;;;8.38;3.55;;;;;;;15.30;71.58;97252.81;4983375;28;20073;-70
2021/09/11 05:54:37;;;;;;;8.25;3.10;;;;;;;15.52;70.35;97240.50;4981768;28;20498;-70
2021/09/11 05:57:04;;;;;;;5.95;3.45;;;;;;;15.66;69.72;97241.31;4983215;28;20055;-71
2021/09/11 05:59:30;;;;;;;11.55;4.18;;;;;;;15.64;69.20;97212.19;4981659;28;20050;-71
2021/09/11 06:01:57;;;;;;;11.25;4.15;;;;;;;15.71;67.54;97207.38;4983085;28;20058;-70
2021/09/11 06:04:24;;;;;;;6.35;3.75;;;;;;;16.18;66.24;97243.28;4981827;28;20481;-70
2021/09/11 06:06:54;;;;;;;8.25;4.53;;;;;;;16.43;66.03;97252.41;4982034;28;20073;-70
2021/09/11 06:09:21;;;;;;;11.32;4.72;;;;;;;16.00;66.57;97183.81;4983256;28;20058;-71
2021/09/11 06:11:47;;;;;;;11.70;4.40;;;;;;;16.75;65.21;97243.13;4983026;28;20051;-70
2021/09/11 06:14:14;;;;;;;11.25;4.75;;;;;;;16.62;64.18;97192.44;4982770;28;20209;-70
2021/09/11 06:16:41;;;;;;;8.27;4.75;;;;;;;16.72;64.22;97174.03;4982038;28;20596;-68
2021/09/11 06:19:08;;;;;;;8.35;5.20;;;;;;;16.58;63.65;97130.91;4982570;28;20062;-69
2021/09/11 06:21:34;;;;;;;12.60;4.88;;;;;;;17.44;63.39;97232.75;4982649;28;20062;-69
2021/09/11 06:24:01;;;;;;;8.88;4.63;;;;;;;17.10;62.91;97164.59;4963052;28;20055;-68
2021/09/11 06:26:28;;;;;;;8.68;4.15;;;;;;;17.84;61.04;97229.28;4963426;28;20065;-69
2021/09/11 06:28:54;;;;;;;8.60;4.50;;;;;;;17.20;62.07;97104.97;4963069;28;20059;-69
2021/09/11 06:31:21;;;;;;;9.57;4.40;;;;;;;17.46;63.10;97221.97;4963003;28;20059;-69
2021/09/11 06:33:48;;;;;;;10.35;4.05;;;;;;;16.88;65.81;97144.38;4960188;28;20059;-69
2021/09/11 06:36:15;;;;;;;11.02;4.10;;;;;;;17.60;65.87;97217.09;4963139;28;20073;-69
2021/09/11 06:38:42;;;;;;;11.13;4.35;;;;;;;17.97;65.15;97213.56;4963269;28;20581;-69
2021/09/11 06:41:08;;;;;;;12.82;7.05;;;;;;;18.30;64.28;97215.66;4961543;28;20059;-69
2021/09/11 06:43:35;;;;;;;7.53;3.55;;;;;;;17.75;60.59;97095.25;4963294;28;20058;-70
2021/09/11 06:46:02;;;;;;;6.95;3.53;;;;;;;18.82;59.15;97208.66;4961549;28;20054;-69
2021/09/11 06:48:28;;;;;;;5.72;3.28;;;;;;;18.75;57.18;97163.03;4962910;28;20757;-70
2021/09/11 06:50:55;;;;;;;6.35;3.70;;;;;;;19.07;55.42;97169.81;4961581;28;20063;-67
2021/09/11 06:53:22;;;;;;;7.40;3.38;;;;;;;18.99;55.40;97145.84;4952095;28;20056;-69
2021/09/11 06:55:50;;;;;;;9.25;4.32;;;;;;;18.65;55.10;97074.94;4959903;28;20055;-69
2021/09/11 06:58:17;;;;;;;8.05;3.60;;;;;;;19.48;54.62;97212.56;4959440;28;20049;-68
2021/09/11 07:00:44;;;;;;;6.90;3.95;;;;;;;19.26;55.63;97176.75;4962056;28;20393;-69
2021/09/11 07:03:11;;;;;;;7.20;3.92;;;;;;;19.95;55.18;97207.00;4961346;28;20428;-69
2021/09/11 07:05:38;;;;;;;8.02;4.05;;;;;;;20.14;53.70;97203.47;4961860;28;20070;-68
2021/09/11 07:08:05;;;;;;;9.45;3.70;;;;;;;19.87;52.00;97121.19;4958397;28;20047;-68
2021/09/11 07:10:31;;;;;;;7.15;3.90;;;;;;;20.47;50.59;97182.75;4943034;28;20050;-68
2021/09/11 07:12:58;;;;;;;6.13;3.83;;;;;;;19.87;50.27;97064.94;4955839;28;20524;-68
2021/09/11 07:15:25;;;;;;;7.13;4.13;;;;;;;20.53;49.48;97136.75;4962360;28;20214;-68
2021/09/11 07:17:53;;;;;;;6.28;4.35;;;;;;;20.78;49.37;97158.78;4961109;28;20055;-68
2021/09/11 07:20:20;;;;;;;8.15;4.45;;;;;;;21.23;48.72;97199.25;4960930;28;20050;-68
2021/09/11 07:22:46;;;;;;;7.82;3.72;;;;;;;21.18;46.79;97142.66;4961270;28;20063;-66
2021/09/11 07:25:14;;;;;;;7.38;3.53;;;;;;;21.57;45.30;97204.53;4961260;28;20058;-65
2021/09/11 07:27:41;;;;;;;12.20;3.80;;;;;;;19.09;44.57;96793.91;4991972;28;20046;-69
2021/09/11 07:30:08;;;;;;;6.88;3.63;;;;;;;21.97;44.07;97201.13;4960604;28;20073;-68
2021/09/11 07:32:35;;;;;;;8.10;3.97;;;;;;;21.84;43.60;97169.25;4945618;28;20538;-67
2021/09/11 07:35:02;;;;;;;6.60;3.40;;;;;;;22.26;44.45;97210.47;4959672;28;20410;-71
2021/09/11 07:37:28;;;;;;;10.02;3.70;;;;;;;22.32;43.34;97214.34;4960432;28;20061;-62
2021/09/11 07:39:55;;;;;;;5.93;2.92;;;;;;;22.52;41.39;97204.97;4989907;28;20067;-63
2021/09/11 07:42:22;;;;;;;7.15;3.47;;;;;;;22.19;41.58;97168.31;5042669;28;21080;-65
2021/09/11 07:44:48;;;;;;;8.30;3.67;;;;;;;21.59;41.65;97066.75;4975616;28;20060;-69
2021/09/11 07:47:17;;;;;;;7.68;4.10;;;;;;;22.62;40.73;97196.19;4948878;28;20057;-67
2021/09/11 07:49:44;;;;;;;10.45;3.83;;;;;;;22.72;39.55;97195.13;4957505;28;20051;-65
2021/09/11 07:52:11;;;;;;;9.00;4.78;;;;;;;22.75;37.70;97165.16;4961110;28;20137;-64
2021/09/11 07:54:38;;;;;;;8.05;3.88;;;;;;;22.85;37.47;97187.50;4951332;28;20057;-63
2021/09/11 07:57:05;;;;;;;8.00;4.28;;;;;;;22.56;34.64;97130.22;4942636;28;20058;-63
2021/09/11 07:59:32;;;;;;;13.48;4.50;;;;;;;23.14;34.02;97188.22;4950715;28;20053;-61
2021/09/11 08:01:59;;;;;;;11.10;5.50;;;;;;;23.26;33.55;97189.53;4950117;28;20055;-67
2021/09/11 08:04:26;;;;;;;8.68;4.57;;;;;;;23.16;31.94;97156.66;4949626;28;20059;-64
2021/09/11 08:06:53;;;;;;;5.88;3.90;;;;;;;22.21;31.76;97052.94;4942239;28;20596;-67
2021/09/11 08:09:19;;;;;;;7.65;4.55;;;;;;;23.31;35.12;97174.81;4948603;28;20055;-66
2021/09/11 08:11:46;;;;;;;7.90;4.13;;;;;;;23.52;34.63;97182.66;4942887;28;20055;-65
2021/09/11 08:14:13;;;;;;;8.05;4.30;;;;;;;23.61;34.56;97177.09;4953628;28;20051;-66
2021/09/11 08:16:39;;;;;;;7.60;4.57;;;;;;;23.71;34.33;97175.97;4961704;28;20505;-63
2021/09/11 08:19:06;;;;;;;6.60;4.35;;;;;;;23.90;34.49;97177.75;4956170;28;20061;-65
2021/09/11 08:21:33;;;;;;;10.43;5.07;;;;;;;24.06;34.34;97174.03;4953251;28;20058;-64
2021/09/11 08:24:00;;;;;;;6.90;4.43;;;;;;;24.09;34.25;97156.91;4954937;28;20058;-65
2021/09/11 08:26:26;;;;;;;9.65;4.35;;;;;;;24.40;33.09;97166.34;4953992;28;20061;-70
2021/09/11 08:28:53;;;;;;;13.65;4.68;;;;;;;24.07;32.42;97108.47;4952291;28;20137;-67
2021/09/11 08:31:20;;;;;;;13.00;5.47;;;;;;;24.41;30.33;97138.78;4953618;28;20055;-67
2021/09/11 08:33:47;;;;;;;13.57;5.15;;;;;;;24.62;29.50;97155.03;4941944;28;20091;-62
2021/09/11 08:36:14;;;;;;;10.00;4.47;;;;;;;24.64;29.59;97146.88;4940468;28;20048;-69
2021/09/11 08:38:40;;;;;;;9.45;5.63;;;;;;;24.26;30.62;97127.19;4943291;28;20089;-66
2021/09/11 08:41:07;;;;;;;9.70;5.85;;;;;;;23.41;29.71;96958.81;4961406;28;20050;-67
2021/09/11 08:43:36;;;;;;;13.15;5.05;;;;;;;24.42;28.43;97101.50;4961288;28;20063;-69
2021/09/11 08:46:03;;;;;;;7.22;4.75;;;;;;;24.71;28.01;97147.41;4955860;28;20077;-68
2021/09/11 08:48:30;;;;;;;13.25;5.80;;;;;;;24.64;27.89;97113.66;4949144;28;20047;-68
2021/09/11 08:50:57;;;;;;;9.00;5.05;;;;;;;24.88;28.40;97145.19;4943898;28;20046;-67
2021/09/11 08:53:29;;;;;;;10.70;4.95;;;;;;;24.76;28.85;97090.16;4944152;28;20051;-68
2021/09/11 08:55:55;;;;;;;10.30;6.97;;;;;;;24.06;28.99;97129.50;4943724;28;20047;-68
2021/09/11 08:58:22;;;;;;;10.95;6.00;;;;;;;23.10;29.37;97039.78;4951772;28;20415;-68
2021/09/11 09:00:51;;;;;;;10.45;6.13;;;;;;;24.20;30.26;97111.25;4944464;28;20059;-69
2021/09/11 09:03:35;;;;;;;11.57;5.57;;;;;;;24.49;29.23;97112.59;4952651;28;20078;-68
2021/09/11 09:06:28;;;;;;;8.13;5.38;;;;;;;24.57;29.70;97094.09;4952029;28;20529;-66
2021/09/11 09:09:11;;;;;;;11.63;6.00;;;;;;;24.77;29.14;97083.22;4944339;28;20051;-69
2021/09/11 09:11:42;;;;;;;12.00;5.60;;;;;;;25.12;29.14;97115.88;4948588;28;20061;-71
2021/09/11 09:14:12;;;;;;;9.27;6.20;;;;;;;25.20;28.46;97116.38;4947735;28;20154;-64
2021/09/11 09:16:45;;;;;;;15.95;6.07;;;;;;;25.29;29.11;97111.53;4943048;28;20055;-72
2021/09/11 09:19:17;;;;;;;12.15;5.57;;;;;;;25.40;29.61;97113.19;4951238;28;20064;-66
2021/09/11 09:21:46;;;;;;;12.65;7.28;;;;;;;24.75;29.61;97003.56;4959903;28;20055;-67
2021/09/11 09:24:27;;;;;;;11.43;5.40;;;;;;;25.61;28.67;97103.81;4955211;28;20517;-63
2021/09/11 09:26:56;;;;;;;8.55;5.55;;;;;;;25.47;28.79;97101.53;4961795;28;20063;-65
2021/09/11 09:29:26;;;;;;;12.77;5.95;;;;;;;25.61;29.25;97101.00;4963006;28;20063;-68
2021/09/11 09:31:55;;;;;;;11.18;6.35;;;;;;;25.81;29.23;97105.00;4944730;28;20438;-64
2021/09/11 09:34:33;;;;;;;10.88;6.30;;;;;;;25.83;29.02;97101.69;4955785;28;20047;-66
2021/09/11 09:37:06;;;;;;;9.50;5.63;;;;;;;25.40;29.01;96994.06;4970220;28;20130;-65
2021/09/11 09:39:44;;;;;;;;;;;;;;;26.18;28.28;97100.16;4945499;28;20469;-70
2021/09/11 09:42:12;;;;;;;8.80;5.80;;;;;;;24.38;28.91;96820.50;4943766;29;20460;-67
2021/09/11 09:44:50;;;;;;;11.63;6.05;;;;;;;26.18;28.63;97094.47;4943327;28;20055;-67
2021/09/11 09:47:22;;;;;;;7.60;5.15;;;;;;;26.30;28.46;97082.19;4944946;28;20157;-67
2021/09/11 09:50:10;;;;;;;9.35;6.05;;;;;;;26.41;28.78;97091.03;4945246;28;20054;-66
2021/09/11 09:52:38;;;;;;;12.20;6.50;;;;;;;25.96;29.31;97043.50;4943803;28;20051;-69
2021/09/11 09:55:07;;;;;;;12.82;7.43;;;;;;;26.17;28.59;97053.16;4944136;28;20601;-67
2021/09/11 09:57:38;;;;;;;9.48;5.40;;;;;;;26.02;28.10;97035.94;4942592;29;20602;-70
2021/09/11 10:00:05;;;;;;;9.70;5.40;;;;;;;26.13;29.42;97015.63;4953664;28;20487;-65
2021/09/11 10:02:32;;;;;;;11.65;5.40;;;;;;;26.45;28.89;97085.97;4963345;28;20565;-65
2021/09/11 10:04:59;;;;;;;10.20;5.57;;;;;;;26.47;28.36;97077.78;4961911;28;20129;-67
2021/09/11 10:07:26;;;;;;;12.35;5.95;;;;;;;26.52;28.45;97079.97;4950165;28;20054;-71
2021/09/11 10:09:54;;;;;;;11.20;5.57;;;;;;;26.43;28.03;97029.63;4959083;28;20095;-69
2021/09/11 10:12:35;;;;;;;12.43;6.00;;;;;;;26.63;28.62;97080.28;4963392;28;20054;-65
2021/09/11 10:15:24;;;;;;;10.15;5.75;;;;;;;26.60;28.79;97086.91;4946985;28;20051;-63
2021/09/11 10:17:52;;;;;;;9.55;5.93;;;;;;;26.81;28.56;97083.09;4945223;28;20597;-65
2021/09/11 10:20:19;;;;;;;13.98;6.07;;;;;;;23.78;27.88;96694.78;4946107;28;20055;-70
2021/09/11 10:23:07;;;;;;;17.85;7.13;;;;;;;26.16;28.49;96969.22;4949439;28;20059;-66
2021/09/11 10:25:45;;;;;;;12.25;5.80;;;;;;;25.08;28.61;96894.09;4960723;28;20505;-65
2021/09/11 10:28:22;;;;;;;17.40;7.15;;;;;;;26.29;29.11;97077.75;4948592;28;20453;-65
2021/09/11 10:31:10;;;;;;;6.15;4.50;;;;;;;25.86;28.59;97075.19;4947925;28;20050;-65
2021/09/11 10:33:46;;;;;;;10.65;6.00;;;;;;;26.22;29.53;97078.09;4953729;28;20126;-66
2021/09/11 10:36:32;;;;;;;51.05;29.70;;;;;;;25.92;28.99;97081.81;4946627;28;20541;-68
2021/09/11 10:39:08;;;;;;;13.40;7.15;;;;;;;26.01;28.52;97068.47;4951416;28;20053;-68
2021/09/11 10:41:35;;;;;;;14.93;6.47;;;;;;;25.48;28.56;97069.09;4949665;28;20055;-69
2021/09/11 10:44:05;;;;;;;14.65;5.82;;;;;;;25.77;28.25;97066.63;4943414;28;20402;-69
2021/09/11 10:46:51;;;;;;;9.13;5.20;;;;;;;26.14;27.65;97062.63;4942943;28;20055;-71
2021/09/11 10:49:35;;;;;;;10.57;5.40;;;;;;;26.05;28.46;97057.72;4958930;28;20059;-70
2021/09/11 10:52:05;;;;;;;11.45;5.53;;;;;;;26.35;28.32;97050.31;4946593;28;20057;-67
2021/09/11 10:54:42;;;;;;;9.93;5.70;;;;;;;26.61;28.94;97054.38;4949211;28;20137;-61
2021/09/11 10:57:12;;;;;;;18.42;11.95;;;;;;;24.72;28.91;96757.22;4950191;28;20518;-68
2021/09/11 10:59:47;;;;;;;11.48;6.47;;;;;;;26.20;28.98;97043.69;4942898;28;20043;-68
2021/09/11 11:02:36;;;;;;;15.80;6.63;;;;;;;25.98;29.08;97045.84;4957757;28;20065;-67
2021/09/11 11:05:10;;;;;;;10.32;5.45;;;;;;;25.73;29.20;97046.16;4957538;28;20051;-62
2021/09/11 11:07:42;;;;;;;9.68;6.28;;;;;;;25.37;28.61;96990.09;4941926;28;20057;-62
2021/09/11 11:10:12;;;;;;;10.80;5.53;;;;;;;26.06;28.39;96996.03;4946403;28;20063;-60
2021/09/11 11:12:45;;;;;;;8.93;5.70;;;;;;;26.81;28.58;97039.69;4946558;28;20058;-62
2021/09/11 11:15:15;;;;;;;12.90;5.88;;;;;;;26.98;26.77;97021.78;4967404;28;20108;-60
2021/09/11 11:17:48;;;;;;;11.68;6.25;;;;;;;26.21;27.82;97002.66;4946128;28;20075;-67
2021/09/11 11:20:21;;;;;;;;;;;;;;;26.98;27.23;97030.31;4943924;28;20050;-66
2021/09/11 11:22:48;;;;;;;10.57;5.63;;;;;;;26.51;26.99;97021.53;4952196;28;19926;-65
2021/09/11 11:25:38;;;;;;;8.38;5.13;;;;;;;25.81;27.53;96928.22;4942267;28;20055;-65
2021/09/11 11:28:10;;;;;;;9.25;5.78;;;;;;;26.57;27.64;97023.28;4942828;28;20051;-66
2021/09/11 11:30:42;;;;;;;10.35;6.57;;;;;;;25.97;29.04;96981.81;4958596;28;20052;-65
2021/09/11 11:33:09;;;;;;;10.35;6.07;;;;;;;26.63;28.58;96987.28;4958057;28;20069;-67
2021/09/11 11:35:39;;;;;;;11.77;6.97;;;;;;;26.70;27.67;96944.31;4966836;28;20058;-67
2021/09/11 11:38:06;;;;;;;8.13;6.10;;;;;;;26.03;27.47;96855.03;4942720;28;20069;-63